Time;durP1;ratioP1;P1;durP2;ratioP2;P2;SDS_P1;SDS_P2;PMS_P1;PMS_P2;Temp;Humidity;BMP_temperature;BMP_pressure;BME280_temperature;BME280_humidity;BME280_pressure;Samples;Min_cycle;Max_cycle;Signal;HPM_P1;HPM_P2
2022/09/30 00:04:17;;;;;;;7.90;2.87;;;;;;;15.24;67.77;98873.41;7579911;33;39498;-72
2022/09/30 00:08:34;;;;;;;5.47;3.47;;;;;;;15.12;68.02;98868.56;7603494;32;40438;-72
2022/09/30 00:12:51;;;;;;;6.50;3.53;;;;;;;14.69;69.67;98874.06;7605524;32;37917;-71
2022/09/30 00:17:08;;;;;;;5.47;3.60;;;;;;;14.87;69.69;98861.97;7605338;32;37819;-71
2022/09/30 00:21:25;;;;;;;6.12;3.10;;;;;;;14.89;69.72;98846.00;7605252;32;39334;-71
2022/09/30 00:25:41;;;;;;;8.05;3.55;;;;;;;15.28;68.52;98854.34;7605474;32;41349;-71
2022/09/30 00:29:57;;;;;;;8.15;3.75;;;;;;;15.43;67.75;98855.78;7604327;32;37655;-72
2022/09/30 00:34:13;;;;;;;5.70;3.78;;;;;;;15.11;68.80;98861.50;7596142;32;37189;-71
2022/09/30 00:38:30;;;;;;;13.88;4.47;;;;;;;14.89;69.58;98870.69;7579224;33;39410;-71
2022/09/30 00:42:46;;;;;;;7.25;3.25;;;;;;;14.91;69.54;98873.91;7579205;33;40029;-71
2022/09/30 00:47:02;;;;;;;4.45;2.97;;;;;;;15.25;68.58;98872.28;7577823;33;38715;-70
2022/09/30 00:51:25;;;;;;;5.47;2.95;;;;;;;15.23;68.42;98866.31;7579315;32;36283;-71
2022/09/30 00:55:44;;;;;;;5.82;2.83;;;;;;;15.35;67.92;98858.22;7578961;33;39048;-71
2022/09/30 01:00:00;;;;;;;7.28;3.60;;;;;;;15.51;67.52;98860.44;7578914;33;39899;-71
2022/09/30 01:04:19;;;;;;;8.00;3.78;;;;;;;15.17;68.47;98867.59;7598438;32;38085;-71
2022/09/30 01:08:38;;;;;;;8.95;4.43;;;;;;;15.08;69.01;98858.59;7603383;32;37869;-71
2022/09/30 01:12:54;;;;;;;9.20;4.68;;;;;;;15.32;68.20;98847.88;7603291;32;39040;-71
2022/09/30 01:17:24;;;;;;;13.10;5.75;;;;;;;14.75;70.15;98845.38;7577437;32;40501;-71
2022/09/30 01:21:46;;;;;;;11.82;5.62;;;;;;;15.06;68.68;98852.63;7578231;33;38637;-70
2022/09/30 01:26:31;;;;;;;11.23;5.68;;;;;;;15.12;69.21;98856.78;7578151;33;37362;-70
2022/09/30 01:30:58;;;;;;;10.10;5.65;;;;;;;15.40;67.99;98838.00;7589611;32;39293;-70
2022/09/30 01:35:21;;;;;;;9.00;5.68;;;;;;;15.15;68.90;98836.94;7603794;32;39904;-72
2022/09/30 01:40:06;;;;;;;10.48;6.68;;;;;;;14.78;70.00;98844.69;7603817;32;37851;-71
2022/09/30 01:44:50;;;;;;;12.07;7.07;;;;;;;14.93;69.69;98851.66;7607010;32;37196;-70
2022/09/30 01:49:19;;;;;;;12.25;7.22;;;;;;;14.74;70.36;98854.72;7607442;32;39510;-71
2022/09/30 01:53:50;;;;;;;11.40;6.97;;;;;;;15.07;69.31;98870.69;7606147;32;40931;-72
2022/09/30 01:58:18;;;;;;;11.65;7.32;;;;;;;15.24;68.21;98870.66;7599543;32;37983;-72
2022/09/30 02:02:42;;;;;;;15.77;7.30;;;;;;;15.32;67.91;98869.06;7581373;33;37068;-72
2022/09/30 02:07:03;;;;;;;13.77;7.32;;;;;;;15.44;67.57;98865.63;7580067;33;40169;-71
2022/09/30 02:11:28;;;;;;;13.73;7.68;;;;;;;15.39;67.71;98861.91;7581182;33;39976;-72
2022/09/30 02:15:50;;;;;;;12.18;7.45;;;;;;;15.33;68.24;98849.50;7581028;33;37857;-71
2022/09/30 02:20:40;;;;;;;15.63;8.25;;;;;;;15.27;68.52;98850.81;7580014;33;37887;-72
2022/09/30 02:24:59;;;;;;;13.23;7.37;;;;;;;15.25;68.66;98863.25;7555866;32;39178;-71
2022/09/30 02:29:23;;;;;;;10.00;6.50;;;;;;;15.30;68.74;98876.81;7555324;33;40145;-71
2022/09/30 02:33:48;;;;;;;;;;;;;;;14.93;70.19;98896.34;7554370;33;37855;-72
2022/09/30 02:38:15;;;;;;;11.23;5.85;;;;;;;15.52;68.20;98864.78;7555686;33;37587;-71
2022/09/30 02:42:31;;;;;;;10.60;6.45;;;;;;;15.45;68.31;98842.53;7554308;33;39351;-71
2022/09/30 02:47:15;;;;;;;13.18;6.60;;;;;;;15.17;69.54;98859.38;7555099;33;40195;-71
2022/09/30 02:51:58;;;;;;;9.48;5.75;;;;;;;14.98;70.33;98860.50;7553991;33;37819;-71
2022/09/30 02:56:23;;;;;;;11.68;5.03;;;;;;;15.43;68.87;98861.28;7592257;32;37111;-72
2022/09/30 03:00:39;;;;;;;8.02;4.82;;;;;;;15.42;69.05;98865.97;7605603;32;39273;-72
2022/09/30 03:04:55;;;;;;;12.15;4.72;;;;;;;15.53;68.72;98852.69;7605351;32;40183;-71
2022/09/30 03:09:12;;;;;;;9.02;5.05;;;;;;;15.29;69.22;98851.28;7606485;32;37780;-71
2022/09/30 03:14:10;;;;;;;13.88;5.35;;;;;;;15.27;69.68;98837.06;7585362;32;37913;-71
2022/09/30 03:18:29;;;;;;;8.50;4.72;;;;;;;15.44;69.28;98843.66;7565265;32;40178;-71
2022/09/30 03:23:09;;;;;;;9.63;5.57;;;;;;;15.29;69.75;98843.03;7590454;32;41064;-71
2022/09/30 03:27:55;;;;;;;10.25;5.78;;;;;;;15.55;68.77;98822.94;7606261;32;38044;-72
2022/09/30 03:32:30;;;;;;;9.07;5.12;;;;;;;15.36;69.67;98813.13;7605292;32;37656;-71
2022/09/30 03:37:12;;;;;;;9.38;5.18;;;;;;;15.27;70.10;98806.88;7605174;32;40024;-71
2022/09/30 03:41:39;;;;;;;10.80;6.35;;;;;;;15.35;70.33;98811.53;7603515;32;39973;-71
2022/09/30 03:46:05;;;;;;;14.15;7.43;;;;;;;15.49;69.83;98818.78;7604903;32;37611;-72
2022/09/30 03:50:23;;;;;;;12.75;7.65;;;;;;;15.40;70.57;98800.38;7596805;32;37879;-71
2022/09/30 03:54:52;;;;;;;12.25;7.47;;;;;;;15.27;71.00;98793.12;7578794;33;39406;-71
2022/09/30 03:59:27;;;;;;;11.27;6.30;;;;;;;15.25;71.14;98797.34;7578790;33;40889;-71
2022/09/30 04:03:43;;;;;;;10.57;6.03;;;;;;;15.28;71.01;98808.50;7579863;33;37653;-70
2022/09/30 04:07:59;;;;;;;11.82;6.18;;;;;;;15.39;70.73;98823.47;7578660;33;37268;-71
2022/09/30 04:12:15;;;;;;;13.15;5.97;;;;;;;15.36;71.11;98829.59;7579807;33;39406;-71
2022/09/30 04:16:32;;;;;;;12.65;6.40;;;;;;;15.37;70.69;98828.47;7579439;33;40886;-72
2022/09/30 04:20:48;;;;;;;10.07;5.55;;;;;;;15.55;70.17;98818.25;7601930;32;37978;-71
2022/09/30 04:25:05;;;;;;;9.38;5.07;;;;;;;15.50;70.44;98812.94;7605442;32;37435;-71
2022/09/30 04:29:21;;;;;;;10.13;5.45;;;;;;;15.30;71.23;98828.19;7605465;32;39286;-72
2022/09/30 04:33:38;;;;;;;8.93;4.72;;;;;;;15.48;70.65;98830.88;7605258;32;40550;-71
2022/09/30 04:37:54;;;;;;;8.57;4.80;;;;;;;15.43;70.50;98831.84;7598499;32;219997;-71
2022/09/30 04:42:10;;;;;;;10.70;5.47;;;;;;;15.43;70.60;98834.59;7592022;32;37071;-71
2022/09/30 04:46:26;;;;;;;10.00;5.10;;;;;;;15.55;70.43;98828.44;7577880;32;40062;-71
2022/09/30 04:50:42;;;;;;;12.70;6.12;;;;;;;15.70;69.81;98836.13;7578949;33;40702;-71
2022/09/30 04:54:58;;;;;;;8.98;5.43;;;;;;;15.61;70.42;98842.78;7578714;33;38029;-72
2022/09/30 04:59:14;;;;;;;8.40;5.57;;;;;;;15.68;70.01;98838.41;7578796;33;37718;-72
2022/09/30 05:03:31;;;;;;;10.85;6.30;;;;;;;15.61;70.37;98848.28;7578611;33;39791;-72
2022/09/30 05:07:47;;;;;;;11.52;6.10;;;;;;;15.70;69.83;98852.63;7578540;33;40541;-72
2022/09/30 05:12:03;;;;;;;9.45;5.82;;;;;;;15.54;70.68;98857.84;7590223;32;38395;-71
2022/09/30 05:16:20;;;;;;;10.07;5.75;;;;;;;15.74;69.95;98853.56;7585023;32;36891;-71
2022/09/30 05:20:36;;;;;;;11.70;5.40;;;;;;;15.79;69.98;98849.06;7581861;33;39654;-72
2022/09/30 05:24:54;;;;;;;9.85;5.60;;;;;;;15.77;69.91;98852.94;7581703;33;39936;-71
2022/09/30 05:29:11;;;;;;;8.05;4.45;;;;;;;15.95;70.52;98864.69;7606611;32;37664;-75
2022/09/30 05:33:28;;;;;;;7.55;4.47;;;;;;;16.35;70.71;98874.53;7600907;32;37789;-73
2022/09/30 05:37:44;;;;;;;7.85;4.35;;;;;;;16.42;70.32;98877.53;7588132;32;39300;-72
2022/09/30 05:42:01;;;;;;;7.35;4.55;;;;;;;16.41;68.53;98875.91;7602350;32;40077;-72
2022/09/30 05:46:18;;;;;;;7.43;4.32;;;;;;;16.26;69.24;98880.03;7581377;33;37989;-72
2022/09/30 05:50:35;;;;;;;6.82;4.30;;;;;;;16.08;69.39;98873.03;7581426;33;38134;-73
2022/09/30 05:54:51;;;;;;;12.32;4.15;;;;;;;16.27;69.23;98884.41;7581355;33;39990;-72
2022/09/30 05:59:07;;;;;;;7.05;4.35;;;;;;;16.08;70.06;98884.84;7581319;33;39651;-71
2022/09/30 06:03:23;;;;;;;5.62;3.78;;;;;;;15.93;70.71;98888.13;7595681;32;37977;-72
2022/09/30 06:07:39;;;;;;;8.48;4.10;;;;;;;16.30;69.61;98892.00;7607234;32;36913;-72
2022/09/30 06:11:56;;;;;;;7.35;3.90;;;;;;;16.11;70.18;98895.19;7603654;32;40140;-73
2022/09/30 06:16:13;;;;;;;9.23;5.43;;;;;;;16.32;69.53;98889.72;7580369;32;40751;-72
2022/09/30 06:20:30;;;;;;;13.73;7.43;;;;;;;16.31;69.64;98896.34;7580811;33;37696;-72
2022/09/30 06:24:46;;;;;;;10.82;6.40;;;;;;;16.34;69.68;98903.94;7594096;32;37049;-72
2022/09/30 06:29:09;;;;;;;13.45;7.70;;;;;;;16.44;69.23;98910.22;7595700;32;39322;-73
2022/09/30 06:33:25;;;;;;;10.40;6.07;;;;;;;16.47;69.33;98913.13;7587728;32;41150;-73
2022/09/30 06:37:41;;;;;;;12.35;6.40;;;;;;;16.67;68.40;98910.72;7591701;32;38595;-73
2022/09/30 06:41:57;;;;;;;6.20;4.05;;;;;;;16.15;70.35;98918.13;7601835;32;36928;-72
2022/09/30 06:46:13;;;;;;;5.57;3.45;;;;;;;16.52;69.37;98914.84;7588125;32;39420;-73
2022/09/30 06:50:37;;;;;;;7.22;3.60;;;;;;;16.51;69.31;98911.31;7593724;32;40919;-74
2022/09/30 06:54:57;;;;;;;5.62;3.25;;;;;;;16.47;69.67;98918.63;7588675;32;38038;-71
2022/09/30 06:59:15;;;;;;;8.85;4.70;;;;;;;16.41;70.07;98935.63;7606709;32;36829;-72
2022/09/30 07:03:34;;;;;;;9.88;5.28;;;;;;;16.38;70.30;98930.78;7606708;32;38404;-72
2022/09/30 07:07:51;;;;;;;9.80;4.60;;;;;;;16.29;70.69;98941.84;7604785;32;39916;-71
2022/09/30 07:12:07;;;;;;;9.07;4.12;;;;;;;16.36;70.64;98941.31;7593815;32;37929;-72
2022/09/30 07:16:24;;;;;;;6.18;3.03;;;;;;;16.63;69.61;98943.59;7580930;32;38437;-72
2022/09/30 07:20:46;;;;;;;3.83;2.80;;;;;;;16.48;70.31;98949.69;7605780;32;40112;-71
2022/09/30 07:25:02;;;;;;;4.68;2.95;;;;;;;16.63;69.23;98953.81;7598157;32;40748;-72
2022/09/30 07:29:18;;;;;;;5.90;3.00;;;;;;;16.55;69.73;98968.41;7582000;32;37859;-72
2022/09/30 07:33:34;;;;;;;5.95;3.20;;;;;;;16.49;70.03;98965.84;7605901;32;37811;-71
2022/09/30 07:37:51;;;;;;;3.65;2.33;;;;;;;16.50;70.22;98972.16;7606161;32;39628;-71
2022/09/30 07:42:07;;;;;;;4.07;2.05;;;;;;;16.48;70.55;98977.19;7605235;32;39908;-72
2022/09/30 07:46:28;;;;;;;3.10;2.12;;;;;;;16.59;70.30;98983.12;7593126;32;37749;-71
2022/09/30 07:50:44;;;;;;;3.22;2.30;;;;;;;16.87;69.33;98976.03;7605733;32;37860;-71
2022/09/30 07:55:01;;;;;;;4.30;1.95;;;;;;;17.15;68.29;98967.25;7603483;32;39293;-72
2022/09/30 07:59:17;;;;;;;4.90;2.25;;;;;;;16.70;69.51;98992.63;7605064;32;39721;-72
2022/09/30 08:03:39;;;;;;;6.65;2.45;;;;;;;16.76;69.80;98996.78;7605046;32;37985;-72
2022/09/30 08:07:55;;;;;;;14.75;10.35;;;;;;;16.88;69.45;98999.69;7603464;32;38558;-72
2022/09/30 08:12:11;;;;;;;8.60;5.70;;;;;;;16.71;70.58;98999.72;7602511;32;39787;-72
2022/09/30 08:16:27;;;;;;;7.82;4.97;;;;;;;16.83;70.73;99001.75;7602201;32;40522;-73
2022/09/30 08:20:43;;;;;;;8.00;4.25;;;;;;;17.04;70.57;99001.81;7602095;32;38025;-72
2022/09/30 08:25:00;;;;;;;4.05;2.80;;;;;;;17.21;69.85;98998.16;7605658;32;37521;-73
2022/09/30 08:29:16;;;;;;;2.90;2.50;;;;;;;17.21;69.93;99010.00;7605522;32;39299;-72
2022/09/30 08:33:40;;;;;;;2.00;1.80;;;;;;;17.15;70.23;99011.31;7605387;32;39963;-73
2022/09/30 08:37:57;;;;;;;6.85;1.75;;;;;;;17.40;69.31;99014.19;7605124;32;37536;-72
2022/09/30 08:42:40;;;;;;;1.73;1.62;;;;;;;17.21;69.86;99023.75;7604069;32;37069;-72
2022/09/30 08:47:30;;;;;;;4.90;1.75;;;;;;;17.34;69.55;99021.06;7604173;32;38994;-72
2022/09/30 08:51:49;;;;;;;1.52;1.37;;;;;;;17.33;69.36;99031.25;7604668;32;39903;-73
2022/09/30 08:56:05;;;;;;;1.77;1.50;;;;;;;17.01;70.16;99038.31;7608047;32;36909;-72
2022/09/30 09:00:23;;;;;;;2.45;1.75;;;;;;;17.45;69.28;99044.31;7608006;32;36952;-72
2022/09/30 09:04:39;;;;;;;2.08;1.87;;;;;;;17.31;69.82;99043.78;7608337;32;39054;-73
2022/09/30 09:09:06;;;;;;;2.55;1.80;;;;;;;17.41;69.86;99052.44;7607912;32;40214;-72
2022/09/30 09:13:51;;;;;;;3.08;1.65;;;;;;;17.69;68.80;99051.09;7607876;32;38883;-72
2022/09/30 09:18:32;;;;;;;3.47;1.92;;;;;;;17.86;68.47;99059.25;7604605;32;37616;-73
2022/09/30 09:22:49;;;;;;;2.92;2.17;;;;;;;18.12;67.87;99056.22;7607757;32;40309;-72
2022/09/30 09:27:29;;;;;;;4.37;2.90;;;;;;;17.14;70.04;99075.78;7607724;32;39855;-73
2022/09/30 09:31:50;;;;;;;5.82;2.97;;;;;;;17.55;68.28;99078.94;7607723;32;38565;-72
2022/09/30 09:36:30;;;;;;;5.50;2.90;;;;;;;17.49;69.18;99078.34;7607600;32;37123;-71
2022/09/30 09:41:15;;;;;;;5.43;2.80;;;;;;;17.56;69.78;99080.56;7607658;32;40124;-72
2022/09/30 09:45:53;;;;;;;4.70;2.62;;;;;;;17.48;69.95;99092.44;7606404;32;40792;-72
2022/09/30 09:50:16;;;;;;;6.00;3.60;;;;;;;17.62;69.34;99096.53;7607443;32;38493;-72
2022/09/30 09:54:40;;;;;;;4.50;2.72;;;;;;;17.61;69.52;99092.19;7606208;32;37010;-73
2022/09/30 09:59:15;;;;;;;3.22;2.00;;;;;;;18.04;67.75;99094.94;7607415;32;39361;-72
2022/09/30 10:03:36;;;;;;;3.87;2.25;;;;;;;17.83;67.47;99107.59;7606105;32;39995;-72
2022/09/30 10:08:15;;;;;;;2.28;2.03;;;;;;;17.14;68.60;99121.81;7606364;32;37064;-72
2022/09/30 10:12:32;;;;;;;2.72;2.20;;;;;;;17.49;68.63;99118.84;7606249;32;37194;-72
2022/09/30 10:16:48;;;;;;;4.22;2.10;;;;;;;17.43;69.05;99130.06;7607081;32;40249;-72
2022/09/30 10:21:20;;;;;;;9.13;2.53;;;;;;;17.45;68.64;99132.47;7607106;32;39854;-71
2022/09/30 10:25:36;;;;;;;4.50;2.80;;;;;;;17.67;67.96;99122.31;7607054;32;38700;-73
2022/09/30 10:29:52;;;;;;;5.43;3.30;;;;;;;17.99;67.71;99113.31;7605850;32;37602;-72
2022/09/30 10:34:20;;;;;;;7.07;3.10;;;;;;;17.11;69.51;99106.78;7606946;32;40165;-72
2022/09/30 10:38:45;;;;;;;10.52;4.18;;;;;;;16.38;72.40;99124.13;7606910;32;40781;-72
2022/09/30 10:43:01;;;;;;;5.03;3.55;;;;;;;17.29;70.20;99124.00;7606852;32;38558;-72
2022/09/30 10:47:20;;;;;;;5.10;3.80;;;;;;;17.59;69.62;99133.06;7606844;32;36885;-72
2022/09/30 10:51:37;;;;;;;8.05;4.60;;;;;;;17.53;69.77;99156.44;7605633;32;39447;-72
2022/09/30 10:55:54;;;;;;;9.35;4.37;;;;;;;16.85;73.21;99162.75;7606654;32;40728;-73
2022/09/30 11:00:16;;;;;;;7.30;3.75;;;;;;;17.24;71.86;99176.53;7606584;32;38712;-72
2022/09/30 11:04:47;;;;;;;5.10;3.33;;;;;;;16.55;73.63;99180.28;7605533;32;35874;-72
2022/09/30 11:09:15;;;;;;;3.85;2.50;;;;;;;17.00;72.19;99188.13;7606697;32;39851;-73
2022/09/30 11:13:55;;;;;;;4.15;2.87;;;;;;;17.07;72.03;99199.44;7606174;32;39754;-72
2022/09/30 11:18:20;;;;;;;3.55;2.83;;;;;;;16.86;72.51;99216.66;7606365;32;38711;-72
2022/09/30 11:22:47;;;;;;;3.83;2.72;;;;;;;16.65;72.83;99221.22;7606611;32;37868;-71
2022/09/30 11:27:35;;;;;;;3.60;2.58;;;;;;;16.85;72.75;99231.56;7606538;32;39505;-72
2022/09/30 11:31:57;;;;;;;4.10;2.75;;;;;;;16.65;73.82;99246.78;7606318;32;40028;-72
2022/09/30 11:36:37;;;;;;;3.80;2.60;;;;;;;16.66;73.23;99256.66;7606148;32;37953;-72
2022/09/30 11:41:32;;;;;;;6.15;2.62;;;;;;;16.23;74.35;99243.72;7605340;32;38135;-72
2022/09/30 11:46:01;;;;;;;8.50;2.83;;;;;;;16.08;75.20;99261.50;7606236;32;40102;-71
2022/09/30 11:50:30;;;;;;;4.03;2.40;;;;;;;17.00;72.27;99267.97;7606202;32;40880;-72
2022/09/30 11:54:58;;;;;;;3.58;1.80;;;;;;;17.40;71.07;99276.78;7604923;32;37899;-72
2022/09/30 11:59:21;;;;;;;1.75;1.65;;;;;;;17.11;71.75;99288.53;7606168;32;37101;-71
2022/09/30 12:03:41;;;;;;;2.70;2.10;;;;;;;16.82;71.33;99301.00;7604973;32;40075;-72
2022/09/30 12:08:21;;;;;;;3.15;2.28;;;;;;;17.20;70.59;99308.59;7605998;32;40724;-72
2022/09/30 12:12:37;;;;;;;3.17;2.00;;;;;;;17.01;71.69;99313.66;7604856;32;37628;-72
2022/09/30 12:16:55;;;;;;;2.53;2.00;;;;;;;16.98;71.71;99319.81;7604318;32;37733;-72
2022/09/30 12:21:32;;;;;;;2.10;1.77;;;;;;;17.22;70.00;99327.53;7605279;32;39449;-73
2022/09/30 12:25:55;;;;;;;2.40;1.83;;;;;;;17.01;70.21;99317.22;7603338;32;40909;-72
2022/09/30 12:30:16;;;;;;;1.80;1.70;;;;;;;17.49;68.88;99340.13;7605541;32;37663;-72
2022/09/30 12:34:40;;;;;;;1.67;1.40;;;;;;;16.64;71.59;99349.75;7605557;32;37084;-72
2022/09/30 12:39:21;;;;;;;1.80;1.55;;;;;;;17.03;68.61;99347.97;7604155;32;39698;-72
2022/09/30 12:43:37;;;;;;;4.00;1.60;;;;;;;17.20;70.36;99351.84;7605397;32;39721;-72
2022/09/30 12:47:59;;;;;;;1.67;1.50;;;;;;;17.01;70.26;99352.19;7605037;32;37935;-72
2022/09/30 12:52:20;;;;;;;3.70;1.70;;;;;;;16.90;69.12;99351.69;7604155;32;36988;-73
2022/09/30 12:56:40;;;;;;;2.42;1.42;;;;;;;17.00;69.01;99364.34;7604862;32;39410;-72
2022/09/30 13:01:23;;;;;;;2.12;1.70;;;;;;;17.00;69.33;99378.09;7604698;32;40102;-71
2022/09/30 13:05:46;;;;;;;2.53;2.10;;;;;;;16.93;68.96;99392.34;7603356;32;37785;-73
2022/09/30 13:10:20;;;;;;;;;;;;;;;17.49;68.80;99398.00;7604871;32;37974;-72
2022/09/30 13:14:42;;;;;;;;;;;;;;;16.86;70.01;99414.87;7604850;32;40345;-71
2022/09/30 13:18:59;;;;;;;3.67;2.30;;;;;;;16.82;69.06;99413.87;7604308;32;40177;-71
2022/09/30 13:23:35;;;;;;;3.65;2.40;;;;;;;17.06;68.53;99429.94;7599107;32;37699;-72
2022/09/30 13:28:13;;;;;;;3.53;2.70;;;;;;;17.18;67.93;99437.56;7601188;32;36853;-72
2022/09/30 13:32:36;;;;;;;4.97;2.85;;;;;;;17.04;67.58;99425.88;7592877;32;40344;-74
2022/09/30 13:36:52;;;;;;;3.97;3.00;;;;;;;16.67;68.29;99428.91;7567522;32;40105;-72
2022/09/30 13:41:23;;;;;;;4.43;3.00;;;;;;;17.02;68.04;99436.41;7578741;32;37369;-72
2022/09/30 13:45:40;;;;;;;6.50;3.33;;;;;;;16.73;67.96;99432.34;7591338;32;37083;-74
2022/09/30 13:50:09;;;;;;;6.97;3.50;;;;;;;16.73;68.16;99437.00;7565617;33;39316;-79
2022/09/30 13:54:34;;;;;;;5.70;3.58;;;;;;;16.70;67.53;99435.72;7554236;33;39663;-76
2022/09/30 13:59:28;;;;;;;7.10;3.60;;;;;;;16.82;68.17;99432.34;7566236;33;37281;-74
2022/09/30 14:03:53;;;;;;;5.37;3.10;;;;;;;16.69;68.45;99442.34;7583274;32;37717;-72
2022/09/30 14:08:33;;;;;;;5.53;3.75;;;;;;;16.92;68.04;99445.00;7606090;32;39983;-72
2022/09/30 14:13:03;;;;;;;5.87;3.30;;;;;;;16.71;68.22;99429.06;7601876;32;40849;-75
2022/09/30 14:17:44;;;;;;;4.35;3.00;;;;;;;16.91;67.45;99443.38;7602527;32;36957;-74
2022/09/30 14:22:09;;;;;;;5.00;3.22;;;;;;;16.69;68.28;99454.19;7553013;33;37153;-73
2022/09/30 14:26:47;;;;;;;6.37;3.92;;;;;;;16.72;67.97;99452.72;7587483;32;39202;-74
2022/09/30 14:31:07;;;;;;;6.85;3.90;;;;;;;16.21;69.37;99470.69;7581365;32;40312;-75
2022/09/30 14:35:27;;;;;;;5.82;4.07;;;;;;;16.06;70.51;99474.69;7580472;32;37925;-75
2022/09/30 14:39:45;;;;;;;10.98;4.43;;;;;;;16.36;69.26;99475.75;7593057;32;37264;-73
2022/09/30 14:44:07;;;;;;;5.20;3.83;;;;;;;16.07;69.68;99476.28;7596106;32;39414;-77
2022/09/30 14:48:41;;;;;;;5.97;4.47;;;;;;;16.18;69.49;99477.63;7587464;32;39707;-75
2022/09/30 14:52:59;;;;;;;8.85;5.03;;;;;;;16.08;69.32;99481.47;7576773;32;37721;-77
2022/09/30 14:57:16;;;;;;;9.38;5.03;;;;;;;16.05;68.85;99464.78;7605822;32;36911;-77
2022/09/30 15:01:36;;;;;;;8.57;5.25;;;;;;;16.18;68.64;99465.81;7595462;32;39036;-75
2022/09/30 15:05:55;;;;;;;11.45;4.95;;;;;;;16.04;68.46;99472.25;7587912;32;40835;-76
2022/09/30 15:10:22;;;;;;;7.65;4.95;;;;;;;16.55;67.07;99472.75;7582217;32;37847;-78
2022/09/30 15:14:54;;;;;;;6.45;4.57;;;;;;;16.46;67.01;99467.22;7597427;32;36587;-76
2022/09/30 15:19:22;;;;;;;8.18;4.45;;;;;;;15.97;67.89;99482.87;7594139;32;39238;-77
2022/09/30 15:23:43;;;;;;;6.70;4.10;;;;;;;16.51;66.35;99478.06;7594910;32;40705;-77
2022/09/30 15:27:59;;;;;;;3.72;2.87;;;;;;;16.41;66.09;99486.62;7599991;32;37608;-76
2022/09/30 15:32:20;;;;;;;4.55;3.20;;;;;;;16.17;66.94;99491.69;7589408;32;36990;-76
2022/09/30 15:36:37;;;;;;;4.55;3.17;;;;;;;16.33;66.77;99495.66;7600177;32;39443;-77
2022/09/30 15:41:02;;;;;;;4.47;3.00;;;;;;;16.28;66.95;99493.03;7605257;32;39967;-76
2022/09/30 15:45:33;;;;;;;4.65;3.22;;;;;;;16.40;66.44;99497.94;7591956;32;37926;-75
2022/09/30 15:49:51;;;;;;;3.67;3.23;;;;;;;16.51;65.99;99502.84;7605626;32;37059;-77
2022/09/30 15:54:31;;;;;;;4.43;3.35;;;;;;;16.41;66.74;99500.38;7605158;32;39274;-77
2022/09/30 15:59:07;;;;;;;5.18;3.60;;;;;;;16.56;65.13;99507.41;7594392;32;40040;-77
2022/09/30 16:03:30;;;;;;;4.72;3.33;;;;;;;16.82;64.83;99521.22;7605016;32;37683;-77
2022/09/30 16:07:46;;;;;;;7.57;3.50;;;;;;;16.86;65.35;99524.97;7604188;32;37285;-75
2022/09/30 16:12:11;;;;;;;6.65;3.47;;;;;;;16.95;64.96;99529.72;7605319;32;39332;-76
2022/09/30 16:16:30;;;;;;;4.47;3.12;;;;;;;16.89;65.81;99543.63;7598061;32;40720;-78
2022/09/30 16:21:02;;;;;;;5.37;3.40;;;;;;;16.97;64.69;99541.22;7577876;32;38587;-77
2022/09/30 16:25:32;;;;;;;5.28;3.60;;;;;;;16.78;64.32;99558.81;7602142;32;37850;-78
2022/09/30 16:29:48;;;;;;;7.32;4.45;;;;;;;16.34;67.32;99552.28;7597742;32;40179;-77
2022/09/30 16:34:04;;;;;;;7.85;4.70;;;;;;;16.53;66.05;99552.84;7548529;33;40955;-76
2022/09/30 16:38:21;;;;;;;7.03;4.50;;;;;;;16.62;65.46;99543.84;7556572;33;37956;-77
2022/09/30 16:42:37;;;;;;;5.60;3.70;;;;;;;16.96;65.16;99542.34;7563818;33;37747;-78
2022/09/30 16:46:53;;;;;;;8.35;3.90;;;;;;;16.80;66.47;99550.19;7555645;33;39148;-78
2022/09/30 16:51:15;;;;;;;7.07;3.78;;;;;;;16.75;66.71;99562.19;7559950;33;40832;-81
2022/09/30 16:55:32;;;;;;;7.65;4.03;;;;;;;16.88;66.24;99561.28;7589095;32;37819;-81
2022/09/30 16:59:48;;;;;;;5.70;4.15;;;;;;;16.72;66.23;99568.31;7552329;33;37073;-79
2022/09/30 17:04:04;;;;;;;8.40;3.80;;;;;;;16.66;66.48;99581.41;7553026;33;40329;-80
2022/09/30 17:08:22;;;;;;;5.50;3.60;;;;;;;16.61;66.81;99575.22;7556158;33;39988;-79
2022/09/30 17:12:38;;;;;;;5.45;3.17;;;;;;;16.79;66.04;99574.16;7590080;32;37776;-78
2022/09/30 17:16:55;;;;;;;5.00;3.12;;;;;;;17.06;64.92;99572.34;7579871;33;37216;-78
2022/09/30 17:21:11;;;;;;;6.37;3.20;;;;;;;16.72;65.98;99579.34;7581325;33;39146;-77
2022/09/30 17:25:27;;;;;;;7.45;4.25;;;;;;;16.70;66.08;99587.91;7581233;33;39721;-78
2022/09/30 17:29:43;;;;;;;8.05;4.37;;;;;;;16.80;65.78;99603.34;7580676;33;39416;-78
2022/09/30 17:34:04;;;;;;;5.10;3.50;;;;;;;16.69;66.17;99612.97;7581609;33;37281;-78
2022/09/30 17:38:20;;;;;;;4.22;3.00;;;;;;;16.65;66.21;99603.75;7580403;33;40119;-77
2022/09/30 17:47:14;;;;;;;6.37;2.92;;;;;;;16.86;65.66;99596.56;7561292;33;37762;-77
2022/09/30 17:51:30;;;;;;;5.50;2.47;;;;;;;16.94;65.39;99596.94;7554767;33;37180;-76
2022/09/30 17:55:59;;;;;;;5.00;2.90;;;;;;;16.80;65.52;99597.00;7555520;33;39199;-77
2022/09/30 18:00:16;;;;;;;5.22;3.03;;;;;;;16.90;64.96;99605.00;7565867;33;40041;-76
2022/09/30 18:04:34;;;;;;;9.20;3.97;;;;;;;16.77;65.23;99612.22;7555331;33;38790;-76
2022/09/30 18:08:51;;;;;;;6.22;3.65;;;;;;;16.82;64.99;99620.34;7554232;33;37143;-75
2022/09/30 18:13:07;;;;;;;6.97;4.03;;;;;;;16.40;66.67;99622.56;7554795;33;39411;-74
2022/09/30 18:17:24;;;;;;;10.10;3.78;;;;;;;16.66;66.23;99621.88;7554384;33;40482;-76
2022/09/30 18:21:40;;;;;;;10.32;3.75;;;;;;;16.77;65.63;99616.91;7555040;33;38720;-77
2022/09/30 18:25:57;;;;;;;5.85;3.60;;;;;;;16.52;66.16;99628.31;7554038;33;37977;-75
2022/09/30 18:30:13;;;;;;;5.45;3.35;;;;;;;16.52;66.09;99635.72;7555096;33;39233;-76
2022/09/30 18:34:30;;;;;;;7.15;3.35;;;;;;;16.74;64.81;99642.31;7555007;33;39844;-75
2022/09/30 18:38:47;;;;;;;5.03;3.37;;;;;;;16.53;65.07;99649.16;7554649;33;38169;-73
2022/09/30 18:43:09;;;;;;;10.45;5.25;;;;;;;16.55;64.62;99645.31;7555085;33;37300;-74
2022/09/30 18:47:31;;;;;;;6.85;4.20;;;;;;;16.45;64.79;99644.44;7554711;33;38371;-75
2022/09/30 18:51:53;;;;;;;9.70;4.37;;;;;;;16.17;65.62;99643.75;7554821;33;40065;-75
2022/09/30 18:56:13;;;;;;;;;;;;;;;16.12;65.90;99661.19;7565203;33;38183;-74
2022/09/30 19:00:31;;;;;;;12.43;7.47;;;;;;;16.20;65.97;99669.84;7554914;33;36902;-76
2022/09/30 19:04:47;;;;;;;13.23;7.28;;;;;;;16.06;66.55;99683.66;7554746;33;39142;-76
2022/09/30 19:09:05;;;;;;;12.52;6.32;;;;;;;15.89;67.06;99681.56;7554593;33;39925;-76
2022/09/30 19:13:26;;;;;;;8.93;5.93;;;;;;;15.96;66.80;99676.44;7554551;33;37828;-74
2022/09/30 19:17:43;;;;;;;11.35;6.18;;;;;;;15.94;66.67;99667.69;7554412;33;37851;-74
2022/09/30 19:22:00;;;;;;;9.52;5.80;;;;;;;15.74;67.29;99650.50;7554539;33;40181;-75
2022/09/30 19:26:16;;;;;;;14.13;4.97;;;;;;;15.84;67.37;99659.69;7554434;33;40906;-74
2022/09/30 19:30:32;;;;;;;10.93;4.22;;;;;;;16.03;66.74;99643.81;7554172;33;37979;-74
2022/09/30 19:34:53;;;;;;;5.68;3.72;;;;;;;16.00;66.82;99644.44;7553910;33;37920;-74
2022/09/30 19:39:21;;;;;;;7.50;3.47;;;;;;;16.09;66.34;99642.59;7554260;33;39508;-75
2022/09/30 19:43:39;;;;;;;10.20;3.72;;;;;;;15.99;66.55;99634.59;7553893;33;39748;-75
2022/09/30 19:47:58;;;;;;;12.27;4.82;;;;;;;15.71;67.69;99648.41;7554156;33;36862;-74
2022/09/30 19:52:15;;;;;;;7.60;5.00;;;;;;;15.79;67.68;99646.06;7565060;33;36223;-74
2022/09/30 19:56:37;;;;;;;16.07;9.87;;;;;;;15.90;67.59;99655.69;7553958;33;39371;-76
2022/09/30 20:00:55;;;;;;;10.23;5.35;;;;;;;15.86;67.27;99701.41;7553944;33;40613;-74
2022/09/30 20:05:11;;;;;;;14.75;5.78;;;;;;;15.49;69.07;99730.75;7553814;33;37977;-75
2022/09/30 20:09:27;;;;;;;6.82;4.53;;;;;;;15.45;68.85;99725.03;7553976;33;37104;-75
2022/09/30 20:13:47;;;;;;;8.05;4.53;;;;;;;15.72;68.10;99698.66;7553952;33;39258;-76
2022/09/30 20:18:04;;;;;;;9.35;4.22;;;;;;;15.49;68.62;99697.78;7553645;33;39903;-75
2022/09/30 20:22:20;;;;;;;9.90;4.70;;;;;;;15.67;68.10;99687.78;7553901;33;38881;-75
2022/09/30 20:26:43;;;;;;;6.97;4.22;;;;;;;15.79;67.37;99681.78;7564350;33;37275;-75
2022/09/30 20:31:05;;;;;;;6.78;4.30;;;;;;;15.88;67.17;99674.41;7553911;33;39078;-74
2022/09/30 20:35:21;;;;;;;6.97;4.47;;;;;;;15.85;67.29;99678.63;7553850;33;41531;-74
2022/09/30 20:39:39;;;;;;;10.05;4.40;;;;;;;15.93;67.16;99683.34;7553554;33;37976;-75